createdAt,value
2022-08-03T00:01:37.014Z,18.96
2022-08-03T00:04:39.822Z,18.91
2022-08-03T00:07:42.406Z,19.01
2022-08-03T00:10:45.740Z,18.97
2022-08-03T00:13:48.397Z,18.90
2022-08-03T00:16:51.212Z,18.77
2022-08-03T00:19:53.737Z,18.61
2022-08-03T00:22:56.555Z,18.62
2022-08-03T00:25:59.102Z,18.82
2022-08-03T00:29:02.502Z,18.82
2022-08-03T00:32:05.269Z,18.68
2022-08-03T00:35:09.928Z,18.55
2022-08-03T00:38:15.034Z,18.39
2022-08-03T00:41:17.779Z,18.57
2022-08-03T00:44:20.540Z,18.70
2022-08-03T00:47:23.358Z,18.70
2022-08-03T00:50:27.179Z,18.52
2022-08-03T00:53:30.233Z,18.47
2022-08-03T00:56:32.777Z,18.44
2022-08-03T00:59:35.724Z,18.41
2022-08-03T01:02:39.465Z,18.31
2022-08-03T01:05:52.163Z,18.11
2022-08-03T01:09:04.086Z,18.10
2022-08-03T01:12:08.875Z,18.06
2022-08-03T01:15:32.272Z,18.01
2022-08-03T01:18:52.042Z,18.06
2022-08-03T01:22:16.843Z,17.97
2022-08-03T01:25:19.825Z,17.93
2022-08-03T01:29:04.931Z,17.96
2022-08-03T01:32:58.245Z,18.05
2022-08-03T01:35:42.325Z,18.10
2022-08-03T01:38:50.474Z,17.87
2022-08-03T01:41:59.363Z,17.98
2022-08-03T01:45:03.921Z,17.92
2022-08-03T01:48:07.692Z,17.77
2022-08-03T01:51:11.213Z,17.82
2022-08-03T01:54:14.822Z,17.81
2022-08-03T01:57:19.251Z,17.79
2022-08-03T02:00:24.237Z,17.84
2022-08-03T02:03:29.088Z,17.76
2022-08-03T02:07:00.696Z,17.60
2022-08-03T02:09:58.538Z,17.53
2022-08-03T02:13:01.783Z,17.43
2022-08-03T02:16:05.388Z,17.37
2022-08-03T02:19:08.748Z,17.29
2022-08-03T02:22:13.289Z,17.32
2022-08-03T02:25:16.564Z,17.22
2022-08-03T02:28:21.157Z,17.23
2022-08-03T02:31:27.399Z,17.20
2022-08-03T02:34:31.847Z,17.14
2022-08-03T02:37:42.992Z,17.12
2022-08-03T02:40:55.684Z,17.18
2022-08-03T02:44:07.170Z,17.18
2022-08-03T02:47:12.509Z,17.12
2022-08-03T02:50:17.563Z,17.07
2022-08-03T02:53:21.749Z,17.00
2022-08-03T02:56:25.911Z,16.96
2022-08-03T02:59:31.272Z,17.02
2022-08-03T03:02:35.106Z,16.86
2022-08-03T03:05:54.865Z,17.02
2022-08-03T03:09:00.580Z,16.99
2022-08-03T03:12:04.482Z,16.98
2022-08-03T03:15:07.454Z,16.95
2022-08-03T03:18:10.950Z,16.90
2022-08-03T03:21:16.202Z,16.97
2022-08-03T03:24:21.320Z,16.95
2022-08-03T03:27:24.090Z,16.90
2022-08-03T03:30:27.943Z,16.95
2022-08-03T03:33:30.545Z,16.87
2022-08-03T03:36:33.331Z,16.91
2022-08-03T03:39:36.500Z,16.86
2022-08-03T03:42:39.422Z,16.86
2022-08-03T03:45:44.967Z,16.72
2022-08-03T03:48:48.262Z,16.62
2022-08-03T03:51:56.884Z,16.57
2022-08-03T03:55:01.335Z,16.50
2022-08-03T03:58:04.768Z,16.52
2022-08-03T04:01:08.784Z,16.59
2022-08-03T04:04:30.244Z,16.60
2022-08-03T04:08:06.705Z,16.70
2022-08-03T04:11:31.992Z,16.79
2022-08-03T04:14:36.207Z,17.00
2022-08-03T04:17:40.504Z,17.03
2022-08-03T04:20:46.280Z,17.25
2022-08-03T04:23:53.831Z,17.37
2022-08-03T04:26:57.554Z,17.56
2022-08-03T04:30:03.035Z,17.75
2022-08-03T04:33:06.485Z,18.01
2022-08-03T04:36:10.000Z,18.34
2022-08-03T04:39:20.395Z,18.68
2022-08-03T04:42:25.416Z,19.23
2022-08-03T04:45:29.139Z,19.83
2022-08-03T04:48:32.303Z,20.29
2022-08-03T04:51:34.966Z,20.10
2022-08-03T04:54:48.748Z,19.83
2022-08-03T04:57:53.483Z,19.68
2022-08-03T05:00:56.229Z,19.49
2022-08-03T05:03:58.857Z,19.69
2022-08-03T05:07:11.701Z,19.78
2022-08-03T05:10:16.667Z,20.05
2022-08-03T05:13:19.603Z,20.24
2022-08-03T05:16:22.097Z,20.34
2022-08-03T05:19:25.208Z,20.52
2022-08-03T05:22:27.669Z,20.70
2022-08-03T05:25:30.792Z,21.06
2022-08-03T05:28:33.289Z,21.58
2022-08-03T05:31:36.059Z,22.20
2022-08-03T05:34:39.046Z,22.54
2022-08-03T05:37:42.311Z,22.62
2022-08-03T05:41:21.961Z,22.36
2022-08-03T05:44:20.762Z,22.02
2022-08-03T05:47:23.213Z,22.03
2022-08-03T05:50:26.098Z,21.93
2022-08-03T05:53:28.583Z,21.96
2022-08-03T05:56:31.355Z,21.85
2022-08-03T05:59:38.373Z,21.93
2022-08-03T06:02:42.180Z,21.97
2022-08-03T06:05:55.574Z,22.04
2022-08-03T06:09:02.941Z,22.08
2022-08-03T06:12:05.807Z,22.00
2022-08-03T06:15:11.242Z,22.08
2022-08-03T06:18:14.553Z,22.19
2022-08-03T06:21:17.066Z,22.15
2022-08-03T06:24:19.774Z,22.23
2022-08-03T06:27:36.602Z,22.42
2022-08-03T06:30:41.574Z,22.51
2022-08-03T06:34:30.968Z,22.55
2022-08-03T06:37:06.771Z,22.71
2022-08-03T06:40:10.578Z,22.75
2022-08-03T06:43:16.821Z,22.93
2022-08-03T06:46:19.843Z,23.08
2022-08-03T06:49:22.700Z,23.22
2022-08-03T06:52:37.682Z,23.30
2022-08-03T06:55:42.483Z,23.35
2022-08-03T06:58:47.036Z,23.42
2022-08-03T07:01:49.932Z,23.69
2022-08-03T07:04:52.580Z,23.67
2022-08-03T07:07:57.205Z,24.05
2022-08-03T07:10:59.721Z,24.21
2022-08-03T07:14:02.617Z,24.35
2022-08-03T07:17:11.617Z,24.55
2022-08-03T07:20:15.363Z,24.29
2022-08-03T07:23:19.098Z,24.92
2022-08-03T07:26:22.363Z,25.27
2022-08-03T07:29:25.205Z,25.50
2022-08-03T07:32:31.108Z,26.18
2022-08-03T07:35:33.724Z,27.31
2022-08-03T07:38:37.178Z,28.47
2022-08-03T07:41:39.693Z,29.02
2022-08-03T07:44:45.347Z,30.73
2022-08-03T07:47:53.397Z,31.26
2022-08-03T07:50:56.758Z,32.30
2022-08-03T07:54:00.990Z,31.76
2022-08-03T07:57:04.036Z,32.75
2022-08-03T08:00:12.518Z,33.17
2022-08-03T08:03:16.018Z,32.98
2022-08-03T08:06:18.646Z,33.56
2022-08-03T08:09:21.455Z,33.51
2022-08-03T08:12:24.004Z,34.12
2022-08-03T08:15:26.780Z,34.74
2022-08-03T08:18:32.380Z,35.64
2022-08-03T08:22:01.776Z,34.75
2022-08-03T08:25:04.423Z,34.94
2022-08-03T08:28:31.804Z,35.89
2022-08-03T08:31:29.767Z,36.52
2022-08-03T08:34:32.542Z,34.06
2022-08-03T08:37:35.700Z,35.11
2022-08-03T08:40:39.387Z,35.50
2022-08-03T08:43:42.752Z,35.76
2022-08-03T08:46:45.713Z,37.03
2022-08-03T08:50:03.999Z,37.81
2022-08-03T08:53:18.943Z,36.89
2022-08-03T08:56:26.116Z,36.54
2022-08-03T08:59:47.797Z,36.67
2022-08-03T09:02:51.918Z,37.14
2022-08-03T09:05:56.074Z,37.36
2022-08-03T09:09:02.215Z,36.08
2022-08-03T09:12:37.169Z,36.91
2022-08-03T09:15:31.429Z,36.58
2022-08-03T09:18:34.299Z,38.77
2022-08-03T09:21:36.837Z,37.61
2022-08-03T09:25:21.560Z,38.68
2022-08-03T09:28:52.805Z,38.36
2022-08-03T09:31:46.458Z,39.37
2022-08-03T09:34:50.503Z,39.30
2022-08-03T09:38:14.323Z,38.43
2022-08-03T09:41:20.037Z,39.20
2022-08-03T09:44:34.362Z,38.32
2022-08-03T09:47:36.969Z,37.02
2022-08-03T09:51:13.293Z,38.91
2022-08-03T09:54:30.296Z,39.14
2022-08-03T09:57:33.180Z,38.44
2022-08-03T10:00:54.084Z,39.97
2022-08-03T10:04:03.064Z,40.30
2022-08-03T10:07:09.699Z,39.00
2022-08-03T10:10:30.193Z,38.52
2022-08-03T10:13:34.612Z,39.15
2022-08-03T10:16:39.454Z,40.35
2022-08-03T10:19:42.075Z,40.71
2022-08-03T10:22:44.873Z,39.98
2022-08-03T10:25:48.528Z,40.13
2022-08-03T10:28:53.352Z,39.85
2022-08-03T10:31:58.987Z,39.78
2022-08-03T10:35:20.044Z,40.33
2022-08-03T10:38:32.690Z,39.51
2022-08-03T10:41:38.525Z,39.62
2022-08-03T10:44:41.420Z,40.64
2022-08-03T10:47:44.495Z,40.92
2022-08-03T10:50:48.869Z,40.25
2022-08-03T10:53:54.553Z,40.51
2022-08-03T10:57:17.003Z,40.12
2022-08-03T11:00:25.795Z,39.98
2022-08-03T11:03:35.464Z,39.66
2022-08-03T11:06:38.303Z,38.40
2022-08-03T11:09:42.204Z,40.53
2022-08-03T11:12:45.471Z,39.80
2022-08-03T11:15:50.671Z,38.67
2022-08-03T11:19:01.044Z,40.30
2022-08-03T11:22:05.359Z,39.70
2022-08-03T11:25:08.355Z,39.46
2022-08-03T11:28:30.925Z,37.17
2022-08-03T11:31:51.435Z,33.86
2022-08-03T11:35:12.120Z,33.41
2022-08-03T11:38:15.082Z,33.02
2022-08-03T11:41:33.695Z,35.81
2022-08-03T11:44:47.816Z,36.68
2022-08-03T11:47:58.635Z,38.46
2022-08-03T11:51:02.542Z,37.55
2022-08-03T11:54:07.404Z,38.22
2022-08-03T11:57:10.362Z,38.37
2022-08-03T12:00:23.791Z,37.55
2022-08-03T12:03:33.213Z,35.31
2022-08-03T12:06:55.292Z,37.24
2022-08-03T12:10:12.422Z,35.15
2022-08-03T12:14:45.213Z,34.36
2022-08-03T12:16:38.679Z,34.62
2022-08-03T12:19:44.177Z,33.59
2022-08-03T12:22:46.986Z,33.57
2022-08-03T12:25:49.715Z,33.53
2022-08-03T12:28:52.658Z,33.78
2022-08-03T12:31:56.097Z,33.43
2022-08-03T12:35:01.563Z,33.55
2022-08-03T12:38:04.851Z,33.27
2022-08-03T12:41:16.727Z,33.27
2022-08-03T12:44:32.706Z,33.70
2022-08-03T12:47:59.979Z,33.06
2022-08-03T12:51:11.749Z,32.77
2022-08-03T12:54:24.247Z,32.32
2022-08-03T12:57:41.437Z,32.62
2022-08-03T13:00:55.626Z,32.72
2022-08-03T13:03:58.210Z,32.53
2022-08-03T13:07:05.503Z,31.63
2022-08-03T13:10:10.141Z,31.78
2022-08-03T13:13:13.256Z,32.20
2022-08-03T13:16:19.336Z,32.12
2022-08-03T13:19:22.406Z,32.16
2022-08-03T13:22:27.414Z,31.69
2022-08-03T13:25:30.175Z,31.55
2022-08-03T13:28:32.755Z,31.90
2022-08-03T13:31:35.627Z,31.82
2022-08-03T13:34:53.179Z,32.00
2022-08-03T13:37:56.162Z,31.96
2022-08-03T13:40:59.882Z,32.06
2022-08-03T13:44:26.656Z,31.99
2022-08-03T13:47:25.383Z,31.80
2022-08-03T13:50:28.407Z,31.64
2022-08-03T13:53:31.092Z,31.43
2022-08-03T13:56:34.032Z,31.10
2022-08-03T13:59:36.670Z,31.36
2022-08-03T14:02:39.567Z,31.23
2022-08-03T14:05:45.626Z,31.18
2022-08-03T14:08:48.363Z,31.33
2022-08-03T14:12:04.050Z,31.28
2022-08-03T14:15:13.178Z,31.07
2022-08-03T14:18:27.520Z,30.92
2022-08-03T14:21:31.438Z,31.12
2022-08-03T14:24:34.225Z,31.04
2022-08-03T14:27:37.221Z,31.12
2022-08-03T14:30:40.317Z,31.02
2022-08-03T14:33:42.863Z,30.99
2022-08-03T14:36:47.269Z,30.94
2022-08-03T14:40:05.835Z,30.99
2022-08-03T14:43:08.936Z,30.94
2022-08-03T14:46:11.472Z,30.89
2022-08-03T14:50:31.517Z,30.66
2022-08-03T14:52:36.788Z,30.65
2022-08-03T14:55:49.837Z,30.58
2022-08-03T14:58:53.881Z,30.65
2022-08-03T15:02:05.622Z,30.55
2022-08-03T15:05:12.797Z,30.42
2022-08-03T15:08:15.845Z,30.52
2022-08-03T15:11:18.358Z,30.53
2022-08-03T15:14:28.320Z,30.53
2022-08-03T15:17:34.952Z,30.51
2022-08-03T15:20:44.885Z,30.53
2022-08-03T15:23:48.656Z,30.51
2022-08-03T15:26:52.412Z,30.25
2022-08-03T15:30:07.315Z,30.35
2022-08-03T15:33:13.242Z,30.30
2022-08-03T15:36:16.889Z,30.25
2022-08-03T15:39:19.771Z,30.20
2022-08-03T15:42:22.322Z,30.19
2022-08-03T15:45:28.521Z,30.13
2022-08-03T15:48:39.239Z,30.11
2022-08-03T15:51:42.051Z,30.05
2022-08-03T15:54:44.640Z,29.89
2022-08-03T15:59:09.647Z,29.91
2022-08-03T16:01:10.807Z,29.96
2022-08-03T16:04:13.647Z,29.91
2022-08-03T16:07:16.384Z,29.91
2022-08-03T16:10:20.612Z,29.76
2022-08-03T16:13:23.276Z,29.82
2022-08-03T16:16:46.114Z,29.76
2022-08-03T16:19:49.317Z,29.72
2022-08-03T16:22:52.400Z,29.64
2022-08-03T16:25:54.913Z,29.61
2022-08-03T16:28:57.794Z,29.62
2022-08-03T16:32:09.317Z,29.51
2022-08-03T16:35:19.407Z,29.36
2022-08-03T16:38:22.478Z,29.36
2022-08-03T16:41:25.286Z,29.40
2022-08-03T16:44:49.902Z,29.28
2022-08-03T16:48:05.993Z,29.13
2022-08-03T16:51:08.690Z,29.26
2022-08-03T16:54:12.415Z,28.93
2022-08-03T16:57:29.746Z,28.94
2022-08-03T17:00:41.556Z,29.02
2022-08-03T17:04:02.162Z,28.84
2022-08-03T17:07:07.792Z,28.86
2022-08-03T17:10:14.122Z,28.66
2022-08-03T17:13:21.694Z,28.67
2022-08-03T17:16:24.866Z,28.56
2022-08-03T17:19:29.358Z,28.63
2022-08-03T17:22:37.506Z,28.48
2022-08-03T17:26:01.503Z,28.32
2022-08-03T17:29:11.133Z,28.19
2022-08-03T17:32:21.174Z,28.02
2022-08-03T17:35:24.437Z,27.89
2022-08-03T17:38:39.375Z,27.79
2022-08-03T17:45:08.918Z,27.71
2022-08-03T17:48:18.883Z,27.61
2022-08-03T17:51:31.674Z,27.47
2022-08-03T17:55:55.229Z,27.33
2022-08-03T17:58:14.939Z,27.12
2022-08-03T18:02:00.385Z,27.06
2022-08-03T18:05:16.397Z,26.93
2022-08-03T18:08:28.644Z,26.79
2022-08-03T18:11:35.666Z,26.67
2022-08-03T18:14:57.563Z,26.58
2022-08-03T18:18:10.904Z,26.43
2022-08-03T18:21:16.786Z,26.29
2022-08-03T18:24:21.196Z,26.12
2022-08-03T18:27:42.740Z,25.92
2022-08-03T18:30:54.073Z,25.64
2022-08-03T18:34:19.727Z,25.50
2022-08-03T18:37:25.207Z,25.53
2022-08-03T18:40:28.746Z,25.33
2022-08-03T18:43:46.205Z,25.26
2022-08-03T18:46:49.339Z,25.18
2022-08-03T18:50:19.016Z,25.03
2022-08-03T18:54:03.011Z,24.90
2022-08-03T18:57:02.073Z,24.81
2022-08-03T19:00:12.445Z,24.72
2022-08-03T19:03:23.410Z,24.64
2022-08-03T19:06:27.852Z,24.51
2022-08-03T19:09:36.493Z,24.40
2022-08-03T19:12:44.479Z,24.30
2022-08-03T19:15:51.487Z,24.19
2022-08-03T19:18:54.673Z,24.08
2022-08-03T19:21:58.458Z,23.84
2022-08-03T19:25:02.363Z,23.68
2022-08-03T19:28:06.092Z,23.51
2022-08-03T19:31:10.645Z,23.41
2022-08-03T19:34:17.992Z,23.32
2022-08-03T19:37:22.104Z,23.20
2022-08-03T19:40:27.161Z,23.16
2022-08-03T19:43:52.654Z,23.06
2022-08-03T19:47:09.981Z,22.96
2022-08-03T19:50:15.561Z,22.87
2022-08-03T19:53:19.253Z,22.83
2022-08-03T19:56:24.071Z,22.73
2022-08-03T19:59:27.888Z,22.68
2022-08-03T20:02:30.927Z,22.67
2022-08-03T20:05:44.868Z,22.46
2022-08-03T20:08:54.311Z,22.28
2022-08-03T20:11:58.960Z,22.12
2022-08-03T20:15:01.876Z,22.00
2022-08-03T20:18:04.862Z,21.68
2022-08-03T20:24:37.339Z,21.45
2022-08-03T20:28:03.627Z,21.43
2022-08-03T20:31:09.860Z,21.44
2022-08-03T20:34:12.362Z,21.44
2022-08-03T20:37:20.399Z,21.56
2022-08-03T20:40:27.367Z,21.78
2022-08-03T20:43:30.730Z,21.76
2022-08-03T20:46:47.864Z,21.64
2022-08-03T20:49:57.004Z,21.67
2022-08-03T20:53:02.851Z,21.63
2022-08-03T20:56:09.127Z,21.65
2022-08-03T20:59:15.124Z,21.55
2022-08-03T21:02:29.649Z,21.50
2022-08-03T21:05:51.327Z,21.50
2022-08-03T21:09:00.191Z,21.39
2022-08-03T21:12:07.771Z,21.18
2022-08-03T21:13:06.033Z,27.75
2022-08-03T21:13:10.127Z,21.58
2022-08-03T21:15:59.573Z,21.04
2022-08-03T21:18:46.697Z,21.04
2022-08-03T21:21:50.292Z,20.91
2022-08-03T21:24:57.315Z,20.84
2022-08-03T21:28:01.017Z,20.85
2022-08-03T21:31:03.912Z,20.92
2022-08-03T21:34:07.238Z,20.87
2022-08-03T21:37:09.779Z,20.75
2022-08-03T21:40:17.711Z,20.78
2022-08-03T21:43:20.615Z,20.77
2022-08-03T21:46:23.938Z,20.68
2022-08-03T21:50:04.786Z,20.68
2022-08-03T21:52:52.115Z,20.47
2022-08-03T21:55:57.772Z,20.42
2022-08-03T21:59:05.423Z,20.40
2022-08-03T22:02:22.656Z,20.26
2022-08-03T22:05:42.475Z,20.26
2022-08-03T22:08:47.793Z,20.21
2022-08-03T22:11:54.139Z,20.13
2022-08-03T22:15:01.400Z,20.05
2022-08-03T22:18:05.411Z,19.97
2022-08-03T22:21:10.289Z,19.85
2022-08-03T22:24:13.648Z,19.84
2022-08-03T22:27:33.331Z,19.79
2022-08-03T22:30:37.082Z,19.72
2022-08-03T22:33:39.841Z,19.71
2022-08-03T22:36:42.960Z,19.66
2022-08-03T22:39:45.606Z,19.65
2022-08-03T22:42:52.058Z,19.56
2022-08-03T22:46:10.539Z,19.58
2022-08-03T22:49:15.540Z,19.53
2022-08-03T22:52:18.116Z,19.46
2022-08-03T22:55:24.878Z,19.30
2022-08-03T22:58:27.767Z,19.26
2022-08-03T23:01:33.168Z,19.14
2022-08-03T23:04:39.235Z,19.15
2022-08-03T23:07:42.891Z,19.13
2022-08-03T23:10:47.324Z,19.12
2022-08-03T23:13:54.236Z,19.14
2022-08-03T23:16:57.132Z,19.21
2022-08-03T23:20:06.550Z,19.27
2022-08-03T23:23:09.494Z,19.26
2022-08-03T23:26:15.751Z,19.30
2022-08-03T23:29:20.393Z,19.37
2022-08-03T23:32:25.849Z,19.40
2022-08-03T23:36:17.213Z,19.45
2022-08-03T23:39:09.869Z,19.38
2022-08-03T23:42:14.015Z,19.34
2022-08-03T23:45:20.602Z,19.31
2022-08-03T23:48:23.150Z,19.28
2022-08-03T23:51:47.795Z,19.26
2022-08-03T23:55:17.335Z,19.28
2022-08-03T23:58:42.223Z,19.21
